sensor_id;sensor_type;location;lat;lon;timestamp;P1;durP1;ratioP1;P2;durP2;ratioP2
11572;SDS011;5842;52.426;4.886;2023-04-06T00:02:20;20.33;;;11.90;;
11572;SDS011;5842;52.426;4.886;2023-04-06T00:04:48;20.80;;;12.00;;
11572;SDS011;5842;52.426;4.886;2023-04-06T00:07:34;20.97;;;11.60;;
11572;SDS011;5842;52.426;4.886;2023-04-06T00:10:02;20.10;;;11.60;;
11572;SDS011;5842;52.426;4.886;2023-04-06T00:12:48;19.43;;;11.40;;
11572;SDS011;5842;52.426;4.886;2023-04-06T00:15:35;17.20;;;11.17;;
11572;SDS011;5842;52.426;4.886;2023-04-06T00:18:16;16.60;;;11.10;;
11572;SDS011;5842;52.426;4.886;2023-04-06T00:20:50;19.00;;;11.30;;
11572;SDS011;5842;52.426;4.886;2023-04-06T00:25:36;17.27;;;10.63;;
11572;SDS011;5842;52.426;4.886;2023-04-06T00:29:06;19.63;;;11.43;;
11572;SDS011;5842;52.426;4.886;2023-04-06T00:29:34;17.93;;;11.07;;
11572;SDS011;5842;52.426;4.886;2023-04-06T00:32:01;17.37;;;11.03;;
11572;SDS011;5842;52.426;4.886;2023-04-06T00:40:35;18.23;;;10.97;;
11572;SDS011;5842;52.426;4.886;2023-04-06T00:43:05;17.73;;;10.47;;
11572;SDS011;5842;52.426;4.886;2023-04-06T00:48:25;19.10;;;11.23;;
11572;SDS011;5842;52.426;4.886;2023-04-06T00:50:52;21.10;;;11.40;;
11572;SDS011;5842;52.426;4.886;2023-04-06T00:53:26;16.83;;;10.80;;
11572;SDS011;5842;52.426;4.886;2023-04-06T00:55:55;17.67;;;11.23;;
11572;SDS011;5842;52.426;4.886;2023-04-06T00:58:23;15.03;;;10.10;;
11572;SDS011;5842;52.426;4.886;2023-04-06T01:01:02;19.07;;;11.17;;
11572;SDS011;5842;52.426;4.886;2023-04-06T01:04:30;17.63;;;10.67;;
11572;SDS011;5842;52.426;4.886;2023-04-06T01:10:07;16.57;;;10.33;;
11572;SDS011;5842;52.426;4.886;2023-04-06T01:12:40;13.33;;;9.20;;
11572;SDS011;5842;52.426;4.886;2023-04-06T01:18:11;16.10;;;9.63;;
11572;SDS011;5842;52.426;4.886;2023-04-06T01:20:50;14.23;;;9.23;;
11572;SDS011;5842;52.426;4.886;2023-04-06T01:23:53;17.53;;;10.30;;
11572;SDS011;5842;52.426;4.886;2023-04-06T01:28:31;16.83;;;10.40;;
11572;SDS011;5842;52.426;4.886;2023-04-06T01:29:29;16.83;;;10.10;;
11572;SDS011;5842;52.426;4.886;2023-04-06T01:31:57;16.53;;;10.40;;
11572;SDS011;5842;52.426;4.886;2023-04-06T01:34:26;17.77;;;10.37;;
11572;SDS011;5842;52.426;4.886;2023-04-06T01:37:12;17.37;;;10.50;;
11572;SDS011;5842;52.426;4.886;2023-04-06T01:39:52;15.80;;;10.20;;
11572;SDS011;5842;52.426;4.886;2023-04-06T01:42:23;14.47;;;9.87;;
11572;SDS011;5842;52.426;4.886;2023-04-06T01:45:07;21.07;;;10.77;;
11572;SDS011;5842;52.426;4.886;2023-04-06T01:47:50;14.90;;;9.50;;
11572;SDS011;5842;52.426;4.886;2023-04-06T01:50:34;17.77;;;10.00;;
11572;SDS011;5842;52.426;4.886;2023-04-06T01:53:06;17.40;;;9.63;;
11572;SDS011;5842;52.426;4.886;2023-04-06T01:58:26;15.50;;;10.03;;
11572;SDS011;5842;52.426;4.886;2023-04-06T02:01:06;15.30;;;9.57;;
11572;SDS011;5842;52.426;4.886;2023-04-06T02:03:45;15.20;;;9.87;;
11572;SDS011;5842;52.426;4.886;2023-04-06T02:06:14;16.43;;;10.13;;
11572;SDS011;5842;52.426;4.886;2023-04-06T02:11:49;17.07;;;10.13;;
11572;SDS011;5842;52.426;4.886;2023-04-06T02:14:32;14.73;;;9.37;;
11572;SDS011;5842;52.426;4.886;2023-04-06T02:17:07;12.40;;;9.07;;
11572;SDS011;5842;52.426;4.886;2023-04-06T02:20:08;16.33;;;9.47;;
11572;SDS011;5842;52.426;4.886;2023-04-06T02:22:36;16.57;;;9.70;;
11572;SDS011;5842;52.426;4.886;2023-04-06T02:25:06;15.27;;;9.73;;
11572;SDS011;5842;52.426;4.886;2023-04-06T02:27:49;16.23;;;9.33;;
11572;SDS011;5842;52.426;4.886;2023-04-06T02:36:05;14.07;;;9.43;;
11572;SDS011;5842;52.426;4.886;2023-04-06T02:38:36;14.90;;;9.90;;
11572;SDS011;5842;52.426;4.886;2023-04-06T02:41:11;17.00;;;9.53;;
11572;SDS011;5842;52.426;4.886;2023-04-06T02:43:53;13.60;;;8.97;;
11572;SDS011;5842;52.426;4.886;2023-04-06T02:46:21;16.87;;;9.73;;
11572;SDS011;5842;52.426;4.886;2023-04-06T02:48:58;16.70;;;10.13;;
11572;SDS011;5842;52.426;4.886;2023-04-06T02:54:54;17.40;;;9.63;;
11572;SDS011;5842;52.426;4.886;2023-04-06T02:57:25;15.47;;;9.80;;
11572;SDS011;5842;52.426;4.886;2023-04-06T03:00:11;16.93;;;10.10;;
11572;SDS011;5842;52.426;4.886;2023-04-06T03:05:42;17.43;;;9.80;;
11572;SDS011;5842;52.426;4.886;2023-04-06T03:08:19;14.20;;;9.53;;
11572;SDS011;5842;52.426;4.886;2023-04-06T03:11:05;17.63;;;9.90;;
11572;SDS011;5842;52.426;4.886;2023-04-06T03:13:52;15.80;;;10.50;;
11572;SDS011;5842;52.426;4.886;2023-04-06T03:16:33;15.73;;;9.57;;
11572;SDS011;5842;52.426;4.886;2023-04-06T03:20:17;15.60;;;10.53;;
11572;SDS011;5842;52.426;4.886;2023-04-06T03:28:20;17.13;;;10.33;;
11572;SDS011;5842;52.426;4.886;2023-04-06T03:31:01;15.90;;;10.03;;
11572;SDS011;5842;52.426;4.886;2023-04-06T03:33:44;17.70;;;10.07;;
11572;SDS011;5842;52.426;4.886;2023-04-06T03:36:16;16.10;;;9.93;;
11572;SDS011;5842;52.426;4.886;2023-04-06T03:39:16;16.70;;;9.67;;
11572;SDS011;5842;52.426;4.886;2023-04-06T03:42:41;16.27;;;10.27;;
11572;SDS011;5842;52.426;4.886;2023-04-06T03:45:23;16.03;;;10.47;;
11572;SDS011;5842;52.426;4.886;2023-04-06T03:48:33;16.60;;;10.50;;
11572;SDS011;5842;52.426;4.886;2023-04-06T03:51:33;15.13;;;9.90;;
11572;SDS011;5842;52.426;4.886;2023-04-06T03:54:30;16.87;;;10.13;;
11572;SDS011;5842;52.426;4.886;2023-04-06T03:57:16;18.70;;;10.60;;
11572;SDS011;5842;52.426;4.886;2023-04-06T04:13:11;19.67;;;11.23;;
11572;SDS011;5842;52.426;4.886;2023-04-06T04:15:56;19.07;;;11.37;;
11572;SDS011;5842;52.426;4.886;2023-04-06T04:19:24;17.87;;;11.20;;
11572;SDS011;5842;52.426;4.886;2023-04-06T04:22:01;20.00;;;12.07;;
11572;SDS011;5842;52.426;4.886;2023-04-06T04:37:15;18.90;;;11.67;;
11572;SDS011;5842;52.426;4.886;2023-04-06T04:47:15;18.23;;;11.80;;
11572;SDS011;5842;52.426;4.886;2023-04-06T05:02:17;18.30;;;11.80;;
11572;SDS011;5842;52.426;4.886;2023-04-06T05:04:58;20.73;;;12.60;;
11572;SDS011;5842;52.426;4.886;2023-04-06T05:35:48;22.90;;;12.33;;
11572;SDS011;5842;52.426;4.886;2023-04-06T05:50:50;24.37;;;13.33;;
11572;SDS011;5842;52.426;4.886;2023-04-06T05:57:01;24.47;;;13.93;;
11572;SDS011;5842;52.426;4.886;2023-04-06T05:59:32;23.77;;;13.97;;
11572;SDS011;5842;52.426;4.886;2023-04-06T06:05:23;22.97;;;13.83;;
11572;SDS011;5842;52.426;4.886;2023-04-06T06:13:58;23.47;;;14.73;;
11572;SDS011;5842;52.426;4.886;2023-04-06T06:23:04;25.30;;;15.23;;
11572;SDS011;5842;52.426;4.886;2023-04-06T06:34:49;27.80;;;16.73;;
11572;SDS011;5842;52.426;4.886;2023-04-06T06:55:15;31.70;;;18.13;;
11572;SDS011;5842;52.426;4.886;2023-04-06T06:57:44;32.30;;;19.17;;
11572;SDS011;5842;52.426;4.886;2023-04-06T07:00:22;29.13;;;18.10;;
11572;SDS011;5842;52.426;4.886;2023-04-06T07:05:46;32.57;;;19.30;;
11572;SDS011;5842;52.426;4.886;2023-04-06T07:08:23;32.00;;;19.90;;
11572;SDS011;5842;52.426;4.886;2023-04-06T07:10:55;29.77;;;19.23;;
11572;SDS011;5842;52.426;4.886;2023-04-06T07:13:28;32.53;;;20.03;;
11572;SDS011;5842;52.426;4.886;2023-04-06T07:16:17;37.47;;;20.53;;
11572;SDS011;5842;52.426;4.886;2023-04-06T07:18:45;34.53;;;20.63;;
11572;SDS011;5842;52.426;4.886;2023-04-06T07:38:18;36.20;;;20.67;;
11572;SDS011;5842;52.426;4.886;2023-04-06T07:40:49;34.53;;;19.40;;
11572;SDS011;5842;52.426;4.886;2023-04-06T07:43:17;35.87;;;20.90;;
11572;SDS011;5842;52.426;4.886;2023-04-06T07:45:44;36.37;;;19.97;;
11572;SDS011;5842;52.426;4.886;2023-04-06T07:48:13;32.60;;;19.73;;
11572;SDS011;5842;52.426;4.886;2023-04-06T07:50:41;35.17;;;19.77;;
11572;SDS011;5842;52.426;4.886;2023-04-06T07:53:09;33.67;;;19.93;;
11572;SDS011;5842;52.426;4.886;2023-04-06T07:55:38;31.83;;;19.60;;
11572;SDS011;5842;52.426;4.886;2023-04-06T07:58:05;33.87;;;20.90;;
11572;SDS011;5842;52.426;4.886;2023-04-06T08:00:34;33.87;;;20.43;;
11572;SDS011;5842;52.426;4.886;2023-04-06T08:03:02;36.00;;;20.73;;
11572;SDS011;5842;52.426;4.886;2023-04-06T08:05:30;34.80;;;20.97;;
11572;SDS011;5842;52.426;4.886;2023-04-06T08:07:57;33.67;;;20.90;;
11572;SDS011;5842;52.426;4.886;2023-04-06T08:10:25;34.10;;;20.60;;
11572;SDS011;5842;52.426;4.886;2023-04-06T08:12:56;32.57;;;20.73;;
11572;SDS011;5842;52.426;4.886;2023-04-06T08:15:26;31.93;;;19.83;;
11572;SDS011;5842;52.426;4.886;2023-04-06T08:17:59;30.60;;;20.23;;
11572;SDS011;5842;52.426;4.886;2023-04-06T08:20:48;32.70;;;20.40;;
11572;SDS011;5842;52.426;4.886;2023-04-06T08:23:19;32.73;;;20.57;;
11572;SDS011;5842;52.426;4.886;2023-04-06T08:25:48;32.63;;;20.70;;
11572;SDS011;5842;52.426;4.886;2023-04-06T08:28:31;28.50;;;19.07;;
11572;SDS011;5842;52.426;4.886;2023-04-06T08:31:02;37.73;;;21.00;;
11572;SDS011;5842;52.426;4.886;2023-04-06T08:33:34;31.03;;;20.77;;
11572;SDS011;5842;52.426;4.886;2023-04-06T08:36:10;33.60;;;20.87;;
11572;SDS011;5842;52.426;4.886;2023-04-06T08:38:42;35.33;;;20.80;;
11572;SDS011;5842;52.426;4.886;2023-04-06T08:41:11;31.67;;;20.37;;
11572;SDS011;5842;52.426;4.886;2023-04-06T08:43:41;31.60;;;20.40;;
11572;SDS011;5842;52.426;4.886;2023-04-06T08:46:15;32.00;;;20.20;;
11572;SDS011;5842;52.426;4.886;2023-04-06T08:48:47;28.77;;;19.23;;
11572;SDS011;5842;52.426;4.886;2023-04-06T08:51:19;32.20;;;20.33;;
11572;SDS011;5842;52.426;4.886;2023-04-06T08:56:30;29.77;;;20.10;;
11572;SDS011;5842;52.426;4.886;2023-04-06T08:59:06;28.80;;;19.60;;
11572;SDS011;5842;52.426;4.886;2023-04-06T09:01:36;31.07;;;19.20;;
11572;SDS011;5842;52.426;4.886;2023-04-06T09:04:23;28.83;;;19.70;;
11572;SDS011;5842;52.426;4.886;2023-04-06T09:13:05;30.20;;;19.63;;
11572;SDS011;5842;52.426;4.886;2023-04-06T09:21:48;28.30;;;18.80;;
11572;SDS011;5842;52.426;4.886;2023-04-06T09:24:15;27.20;;;18.33;;
11572;SDS011;5842;52.426;4.886;2023-04-06T09:26:54;26.80;;;19.07;;
11572;SDS011;5842;52.426;4.886;2023-04-06T09:29:24;28.30;;;18.70;;
11572;SDS011;5842;52.426;4.886;2023-04-06T09:32:06;31.17;;;19.27;;
11572;SDS011;5842;52.426;4.886;2023-04-06T09:34:42;31.17;;;19.40;;
11572;SDS011;5842;52.426;4.886;2023-04-06T09:37:21;28.87;;;19.47;;
11572;SDS011;5842;52.426;4.886;2023-04-06T09:40:03;31.43;;;20.53;;
11572;SDS011;5842;52.426;4.886;2023-04-06T09:45:38;33.30;;;21.77;;
11572;SDS011;5842;52.426;4.886;2023-04-06T09:48:23;30.03;;;20.17;;
11572;SDS011;5842;52.426;4.886;2023-04-06T09:51:05;30.97;;;20.90;;
11572;SDS011;5842;52.426;4.886;2023-04-06T09:53:38;31.83;;;21.50;;
11572;SDS011;5842;52.426;4.886;2023-04-06T09:56:37;31.17;;;21.10;;
11572;SDS011;5842;52.426;4.886;2023-04-06T09:59:12;32.47;;;19.80;;
11572;SDS011;5842;52.426;4.886;2023-04-06T10:01:40;34.07;;;19.67;;
11572;SDS011;5842;52.426;4.886;2023-04-06T10:04:19;34.77;;;20.57;;
11572;SDS011;5842;52.426;4.886;2023-04-06T10:06:51;31.97;;;20.33;;
11572;SDS011;5842;52.426;4.886;2023-04-06T10:09:21;32.43;;;21.07;;
11572;SDS011;5842;52.426;4.886;2023-04-06T10:11:53;30.87;;;20.83;;
11572;SDS011;5842;52.426;4.886;2023-04-06T10:14:21;32.40;;;21.13;;
11572;SDS011;5842;52.426;4.886;2023-04-06T10:16:49;33.23;;;21.23;;
11572;SDS011;5842;52.426;4.886;2023-04-06T10:19:21;27.07;;;19.60;;
11572;SDS011;5842;52.426;4.886;2023-04-06T10:21:51;33.17;;;20.20;;
11572;SDS011;5842;52.426;4.886;2023-04-06T10:24:23;31.50;;;19.87;;
11572;SDS011;5842;52.426;4.886;2023-04-06T10:27:00;31.43;;;19.13;;
11572;SDS011;5842;52.426;4.886;2023-04-06T10:29:41;30.83;;;18.27;;
11572;SDS011;5842;52.426;4.886;2023-04-06T10:32:08;30.97;;;19.17;;
11572;SDS011;5842;52.426;4.886;2023-04-06T10:34:38;28.37;;;18.87;;
11572;SDS011;5842;52.426;4.886;2023-04-06T10:37:12;31.77;;;18.60;;
11572;SDS011;5842;52.426;4.886;2023-04-06T10:39:53;28.83;;;18.57;;
11572;SDS011;5842;52.426;4.886;2023-04-06T10:42:23;28.30;;;17.97;;
11572;SDS011;5842;52.426;4.886;2023-04-06T10:44:51;26.77;;;17.97;;
11572;SDS011;5842;52.426;4.886;2023-04-06T10:47:21;31.13;;;17.77;;
11572;SDS011;5842;52.426;4.886;2023-04-06T10:49:51;28.63;;;18.07;;
11572;SDS011;5842;52.426;4.886;2023-04-06T10:52:20;29.93;;;18.47;;
11572;SDS011;5842;52.426;4.886;2023-04-06T10:54:48;26.50;;;17.77;;
11572;SDS011;5842;52.426;4.886;2023-04-06T10:57:17;27.90;;;17.10;;
11572;SDS011;5842;52.426;4.886;2023-04-06T10:59:55;24.53;;;16.00;;
11572;SDS011;5842;52.426;4.886;2023-04-06T11:02:23;24.70;;;15.53;;
11572;SDS011;5842;52.426;4.886;2023-04-06T11:04:54;27.07;;;16.47;;
11572;SDS011;5842;52.426;4.886;2023-04-06T11:07:25;25.47;;;15.93;;
11572;SDS011;5842;52.426;4.886;2023-04-06T11:09:54;24.53;;;15.10;;
11572;SDS011;5842;52.426;4.886;2023-04-06T11:12:24;24.53;;;14.90;;
11572;SDS011;5842;52.426;4.886;2023-04-06T11:14:52;21.07;;;14.10;;
11572;SDS011;5842;52.426;4.886;2023-04-06T11:17:25;21.67;;;13.33;;
11572;SDS011;5842;52.426;4.886;2023-04-06T11:19:52;22.67;;;13.93;;
11572;SDS011;5842;52.426;4.886;2023-04-06T11:22:20;22.37;;;14.23;;
11572;SDS011;5842;52.426;4.886;2023-04-06T11:24:47;23.90;;;15.00;;
11572;SDS011;5842;52.426;4.886;2023-04-06T11:27:17;25.17;;;15.47;;
11572;SDS011;5842;52.426;4.886;2023-04-06T11:29:47;22.03;;;14.70;;
11572;SDS011;5842;52.426;4.886;2023-04-06T11:32:21;22.70;;;14.50;;
11572;SDS011;5842;52.426;4.886;2023-04-06T11:34:51;22.30;;;14.43;;
11572;SDS011;5842;52.426;4.886;2023-04-06T11:37:18;20.77;;;13.80;;
11572;SDS011;5842;52.426;4.886;2023-04-06T11:39:47;20.07;;;13.37;;
11572;SDS011;5842;52.426;4.886;2023-04-06T11:42:21;19.33;;;13.50;;
11572;SDS011;5842;52.426;4.886;2023-04-06T11:44:53;19.93;;;12.90;;
11572;SDS011;5842;52.426;4.886;2023-04-06T11:47:27;19.90;;;13.33;;
11572;SDS011;5842;52.426;4.886;2023-04-06T11:49:55;18.43;;;11.93;;
11572;SDS011;5842;52.426;4.886;2023-04-06T11:52:25;14.77;;;11.37;;
11572;SDS011;5842;52.426;4.886;2023-04-06T11:54:55;14.57;;;10.27;;
11572;SDS011;5842;52.426;4.886;2023-04-06T11:57:25;12.23;;;9.33;;
11572;SDS011;5842;52.426;4.886;2023-04-06T11:59:54;14.13;;;10.47;;
11572;SDS011;5842;52.426;4.886;2023-04-06T12:02:22;13.60;;;10.07;;
11572;SDS011;5842;52.426;4.886;2023-04-06T12:04:49;15.47;;;10.23;;
11572;SDS011;5842;52.426;4.886;2023-04-06T12:07:17;13.53;;;10.90;;
11572;SDS011;5842;52.426;4.886;2023-04-06T12:09:44;13.33;;;10.80;;
11572;SDS011;5842;52.426;4.886;2023-04-06T12:12:11;13.93;;;10.30;;
11572;SDS011;5842;52.426;4.886;2023-04-06T12:14:39;13.87;;;9.77;;
11572;SDS011;5842;52.426;4.886;2023-04-06T12:17:08;14.53;;;10.43;;
11572;SDS011;5842;52.426;4.886;2023-04-06T12:19:35;16.77;;;10.73;;
11572;SDS011;5842;52.426;4.886;2023-04-06T12:22:03;13.57;;;10.07;;
11572;SDS011;5842;52.426;4.886;2023-04-06T12:24:30;15.23;;;10.17;;
11572;SDS011;5842;52.426;4.886;2023-04-06T12:26:58;13.67;;;10.07;;
11572;SDS011;5842;52.426;4.886;2023-04-06T12:29:26;13.50;;;9.80;;
11572;SDS011;5842;52.426;4.886;2023-04-06T12:31:54;14.17;;;10.27;;
11572;SDS011;5842;52.426;4.886;2023-04-06T12:34:23;13.20;;;9.70;;
11572;SDS011;5842;52.426;4.886;2023-04-06T12:36:50;12.63;;;9.77;;
11572;SDS011;5842;52.426;4.886;2023-04-06T12:39:21;15.10;;;9.93;;
11572;SDS011;5842;52.426;4.886;2023-04-06T12:41:48;14.30;;;9.80;;
11572;SDS011;5842;52.426;4.886;2023-04-06T12:44:16;14.87;;;10.97;;
11572;SDS011;5842;52.426;4.886;2023-04-06T12:46:43;15.43;;;10.50;;
11572;SDS011;5842;52.426;4.886;2023-04-06T12:49:11;14.60;;;9.67;;
11572;SDS011;5842;52.426;4.886;2023-04-06T12:51:45;13.57;;;10.03;;
11572;SDS011;5842;52.426;4.886;2023-04-06T12:54:13;14.37;;;10.67;;
11572;SDS011;5842;52.426;4.886;2023-04-06T12:56:40;16.50;;;10.40;;
11572;SDS011;5842;52.426;4.886;2023-04-06T12:59:08;12.37;;;9.90;;
11572;SDS011;5842;52.426;4.886;2023-04-06T13:01:35;12.77;;;9.70;;
11572;SDS011;5842;52.426;4.886;2023-04-06T13:04:03;16.53;;;10.83;;
11572;SDS011;5842;52.426;4.886;2023-04-06T13:06:30;14.00;;;10.37;;
11572;SDS011;5842;52.426;4.886;2023-04-06T13:08:59;17.90;;;11.03;;
11572;SDS011;5842;52.426;4.886;2023-04-06T13:11:27;14.80;;;10.60;;
11572;SDS011;5842;52.426;4.886;2023-04-06T13:13:55;14.03;;;10.80;;
11572;SDS011;5842;52.426;4.886;2023-04-06T13:16:23;15.43;;;10.43;;
11572;SDS011;5842;52.426;4.886;2023-04-06T13:18:50;15.40;;;10.73;;
11572;SDS011;5842;52.426;4.886;2023-04-06T13:21:18;14.43;;;10.67;;
11572;SDS011;5842;52.426;4.886;2023-04-06T13:23:45;16.33;;;11.07;;
11572;SDS011;5842;52.426;4.886;2023-04-06T13:26:14;16.00;;;11.03;;
11572;SDS011;5842;52.426;4.886;2023-04-06T13:28:42;16.73;;;11.80;;
11572;SDS011;5842;52.426;4.886;2023-04-06T13:31:09;17.40;;;11.70;;
11572;SDS011;5842;52.426;4.886;2023-04-06T13:33:37;15.33;;;11.60;;
11572;SDS011;5842;52.426;4.886;2023-04-06T13:36:06;17.77;;;12.13;;
11572;SDS011;5842;52.426;4.886;2023-04-06T13:38:33;16.07;;;11.27;;
11572;SDS011;5842;52.426;4.886;2023-04-06T13:41:00;16.07;;;11.17;;
11572;SDS011;5842;52.426;4.886;2023-04-06T13:43:29;16.30;;;11.70;;
11572;SDS011;5842;52.426;4.886;2023-04-06T13:45:57;19.50;;;11.80;;
11572;SDS011;5842;52.426;4.886;2023-04-06T13:48:25;17.80;;;12.50;;
11572;SDS011;5842;52.426;4.886;2023-04-06T13:50:53;16.97;;;12.90;;
11572;SDS011;5842;52.426;4.886;2023-04-06T13:53:23;17.97;;;11.97;;
11572;SDS011;5842;52.426;4.886;2023-04-06T13:55:53;19.40;;;12.37;;
11572;SDS011;5842;52.426;4.886;2023-04-06T13:58:21;18.17;;;12.80;;
11572;SDS011;5842;52.426;4.886;2023-04-06T14:00:49;18.07;;;12.93;;
11572;SDS011;5842;52.426;4.886;2023-04-06T14:03:17;18.27;;;12.73;;
11572;SDS011;5842;52.426;4.886;2023-04-06T14:05:45;20.03;;;12.43;;
11572;SDS011;5842;52.426;4.886;2023-04-06T14:08:13;17.27;;;12.67;;
11572;SDS011;5842;52.426;4.886;2023-04-06T14:10:43;16.60;;;12.33;;
11572;SDS011;5842;52.426;4.886;2023-04-06T14:13:10;18.83;;;13.00;;
11572;SDS011;5842;52.426;4.886;2023-04-06T14:15:38;18.07;;;12.80;;
11572;SDS011;5842;52.426;4.886;2023-04-06T14:18:08;18.63;;;13.60;;
11572;SDS011;5842;52.426;4.886;2023-04-06T14:20:35;18.13;;;13.30;;
11572;SDS011;5842;52.426;4.886;2023-04-06T14:23:03;19.17;;;13.27;;
11572;SDS011;5842;52.426;4.886;2023-04-06T14:25:30;19.60;;;13.97;;
11572;SDS011;5842;52.426;4.886;2023-04-06T14:27:59;17.80;;;12.90;;
11572;SDS011;5842;52.426;4.886;2023-04-06T14:30:27;19.63;;;13.53;;
11572;SDS011;5842;52.426;4.886;2023-04-06T14:32:56;19.40;;;14.03;;
11572;SDS011;5842;52.426;4.886;2023-04-06T14:35:28;18.47;;;13.20;;
11572;SDS011;5842;52.426;4.886;2023-04-06T14:37:57;18.77;;;12.60;;
11572;SDS011;5842;52.426;4.886;2023-04-06T14:40:26;17.83;;;12.80;;
11572;SDS011;5842;52.426;4.886;2023-04-06T14:42:57;18.13;;;12.57;;
11572;SDS011;5842;52.426;4.886;2023-04-06T14:45:25;18.57;;;13.60;;
11572;SDS011;5842;52.426;4.886;2023-04-06T14:47:52;17.10;;;12.53;;
11572;SDS011;5842;52.426;4.886;2023-04-06T14:50:20;17.50;;;13.03;;
11572;SDS011;5842;52.426;4.886;2023-04-06T14:52:49;17.87;;;13.33;;
11572;SDS011;5842;52.426;4.886;2023-04-06T14:55:16;20.03;;;13.57;;
11572;SDS011;5842;52.426;4.886;2023-04-06T14:57:45;18.73;;;12.40;;
11572;SDS011;5842;52.426;4.886;2023-04-06T15:00:13;17.77;;;12.83;;
11572;SDS011;5842;52.426;4.886;2023-04-06T15:02:41;18.60;;;13.17;;
11572;SDS011;5842;52.426;4.886;2023-04-06T15:05:11;19.20;;;13.90;;
11572;SDS011;5842;52.426;4.886;2023-04-06T15:07:39;16.97;;;12.50;;
11572;SDS011;5842;52.426;4.886;2023-04-06T15:10:08;19.93;;;12.77;;
11572;SDS011;5842;52.426;4.886;2023-04-06T15:12:36;16.33;;;11.97;;
11572;SDS011;5842;52.426;4.886;2023-04-06T15:15:04;17.13;;;12.73;;
11572;SDS011;5842;52.426;4.886;2023-04-06T15:17:32;15.47;;;12.13;;
11572;SDS011;5842;52.426;4.886;2023-04-06T15:19:59;16.97;;;12.47;;
11572;SDS011;5842;52.426;4.886;2023-04-06T15:22:27;17.03;;;12.67;;
11572;SDS011;5842;52.426;4.886;2023-04-06T15:24:54;18.23;;;12.67;;
11572;SDS011;5842;52.426;4.886;2023-04-06T15:27:23;16.60;;;12.90;;
11572;SDS011;5842;52.426;4.886;2023-04-06T15:29:50;16.13;;;12.47;;
11572;SDS011;5842;52.426;4.886;2023-04-06T15:32:18;15.93;;;12.20;;
11572;SDS011;5842;52.426;4.886;2023-04-06T15:34:46;16.27;;;12.37;;
11572;SDS011;5842;52.426;4.886;2023-04-06T15:37:14;14.60;;;11.57;;
11572;SDS011;5842;52.426;4.886;2023-04-06T15:39:41;16.00;;;12.07;;
11572;SDS011;5842;52.426;4.886;2023-04-06T15:42:09;17.27;;;13.03;;
11572;SDS011;5842;52.426;4.886;2023-04-06T15:44:38;15.20;;;12.23;;
11572;SDS011;5842;52.426;4.886;2023-04-06T15:47:05;17.20;;;12.03;;
11572;SDS011;5842;52.426;4.886;2023-04-06T15:49:33;18.77;;;12.13;;
11572;SDS011;5842;52.426;4.886;2023-04-06T15:52:00;15.73;;;12.07;;
11572;SDS011;5842;52.426;4.886;2023-04-06T15:54:28;15.43;;;11.47;;
11572;SDS011;5842;52.426;4.886;2023-04-06T15:56:57;16.73;;;11.67;;
11572;SDS011;5842;52.426;4.886;2023-04-06T15:59:25;15.00;;;11.80;;
11572;SDS011;5842;52.426;4.886;2023-04-06T16:01:55;13.90;;;10.77;;
11572;SDS011;5842;52.426;4.886;2023-04-06T16:04:23;15.27;;;11.20;;
11572;SDS011;5842;52.426;4.886;2023-04-06T16:06:51;15.17;;;10.53;;
11572;SDS011;5842;52.426;4.886;2023-04-06T16:09:18;13.80;;;10.33;;
11572;SDS011;5842;52.426;4.886;2023-04-06T16:11:45;14.20;;;10.43;;
11572;SDS011;5842;52.426;4.886;2023-04-06T16:14:13;12.13;;;10.50;;
11572;SDS011;5842;52.426;4.886;2023-04-06T16:16:40;15.10;;;10.83;;
11572;SDS011;5842;52.426;4.886;2023-04-06T16:19:09;13.70;;;10.73;;
11572;SDS011;5842;52.426;4.886;2023-04-06T16:21:36;13.57;;;10.67;;
11572;SDS011;5842;52.426;4.886;2023-04-06T16:24:04;14.23;;;10.53;;
11572;SDS011;5842;52.426;4.886;2023-04-06T16:26:32;12.83;;;10.23;;
11572;SDS011;5842;52.426;4.886;2023-04-06T16:29:01;13.80;;;11.00;;
11572;SDS011;5842;52.426;4.886;2023-04-06T16:31:28;12.60;;;10.30;;
11572;SDS011;5842;52.426;4.886;2023-04-06T16:33:57;14.53;;;11.20;;
11572;SDS011;5842;52.426;4.886;2023-04-06T16:36:27;15.57;;;12.13;;
11572;SDS011;5842;52.426;4.886;2023-04-06T16:38:55;16.57;;;11.90;;
11572;SDS011;5842;52.426;4.886;2023-04-06T16:41:23;15.47;;;11.40;;
11572;SDS011;5842;52.426;4.886;2023-04-06T16:43:52;14.67;;;11.47;;
11572;SDS011;5842;52.426;4.886;2023-04-06T16:46:21;14.37;;;11.63;;
11572;SDS011;5842;52.426;4.886;2023-04-06T16:48:48;14.10;;;11.30;;
11572;SDS011;5842;52.426;4.886;2023-04-06T16:51:16;14.70;;;11.53;;
11572;SDS011;5842;52.426;4.886;2023-04-06T16:53:45;15.43;;;12.23;;
11572;SDS011;5842;52.426;4.886;2023-04-06T16:56:13;16.57;;;12.10;;
11572;SDS011;5842;52.426;4.886;2023-04-06T16:58:40;15.10;;;12.37;;
11572;SDS011;5842;52.426;4.886;2023-04-06T17:01:16;15.00;;;12.03;;
11572;SDS011;5842;52.426;4.886;2023-04-06T17:03:44;15.00;;;12.07;;
11572;SDS011;5842;52.426;4.886;2023-04-06T17:06:11;16.80;;;13.03;;
11572;SDS011;5842;52.426;4.886;2023-04-06T17:08:39;15.43;;;12.10;;
11572;SDS011;5842;52.426;4.886;2023-04-06T17:11:08;15.30;;;12.57;;
11572;SDS011;5842;52.426;4.886;2023-04-06T17:13:37;15.93;;;12.53;;
11572;SDS011;5842;52.426;4.886;2023-04-06T17:16:05;17.33;;;12.93;;
11572;SDS011;5842;52.426;4.886;2023-04-06T17:18:32;15.67;;;12.63;;
11572;SDS011;5842;52.426;4.886;2023-04-06T17:21:03;15.70;;;12.53;;
11572;SDS011;5842;52.426;4.886;2023-04-06T17:23:31;15.43;;;12.30;;
11572;SDS011;5842;52.426;4.886;2023-04-06T17:26:01;17.00;;;13.43;;
11572;SDS011;5842;52.426;4.886;2023-04-06T17:28:30;17.53;;;13.40;;
11572;SDS011;5842;52.426;4.886;2023-04-06T17:30:58;17.50;;;13.57;;
11572;SDS011;5842;52.426;4.886;2023-04-06T17:33:26;17.80;;;13.90;;
11572;SDS011;5842;52.426;4.886;2023-04-06T17:35:56;18.77;;;14.10;;
11572;SDS011;5842;52.426;4.886;2023-04-06T17:38:24;18.33;;;14.03;;
11572;SDS011;5842;52.426;4.886;2023-04-06T17:40:51;20.17;;;14.60;;
11572;SDS011;5842;52.426;4.886;2023-04-06T17:43:19;18.20;;;14.00;;
11572;SDS011;5842;52.426;4.886;2023-04-06T17:45:48;19.27;;;15.07;;
11572;SDS011;5842;52.426;4.886;2023-04-06T17:48:16;18.83;;;14.23;;
11572;SDS011;5842;52.426;4.886;2023-04-06T17:50:44;19.47;;;14.83;;
11572;SDS011;5842;52.426;4.886;2023-04-06T17:53:11;19.37;;;14.70;;
11572;SDS011;5842;52.426;4.886;2023-04-06T17:55:39;19.47;;;14.43;;
11572;SDS011;5842;52.426;4.886;2023-04-06T17:58:06;19.80;;;15.03;;
11572;SDS011;5842;52.426;4.886;2023-04-06T18:00:34;20.33;;;15.57;;
11572;SDS011;5842;52.426;4.886;2023-04-06T18:03:03;20.67;;;15.33;;
11572;SDS011;5842;52.426;4.886;2023-04-06T18:05:31;21.80;;;15.90;;
11572;SDS011;5842;52.426;4.886;2023-04-06T18:07:58;23.97;;;17.33;;
11572;SDS011;5842;52.426;4.886;2023-04-06T18:10:25;22.27;;;17.00;;
11572;SDS011;5842;52.426;4.886;2023-04-06T18:12:53;22.33;;;16.50;;
11572;SDS011;5842;52.426;4.886;2023-04-06T18:15:20;22.37;;;17.27;;
11572;SDS011;5842;52.426;4.886;2023-04-06T18:17:51;24.33;;;18.30;;
11572;SDS011;5842;52.426;4.886;2023-04-06T18:20:20;23.50;;;17.50;;
11572;SDS011;5842;52.426;4.886;2023-04-06T18:22:47;23.97;;;18.40;;
11572;SDS011;5842;52.426;4.886;2023-04-06T18:25:15;24.13;;;18.03;;
11572;SDS011;5842;52.426;4.886;2023-04-06T18:27:42;24.30;;;18.43;;
11572;SDS011;5842;52.426;4.886;2023-04-06T18:30:10;25.70;;;18.47;;
11572;SDS011;5842;52.426;4.886;2023-04-06T18:32:38;26.33;;;18.93;;
11572;SDS011;5842;52.426;4.886;2023-04-06T18:35:06;26.60;;;19.13;;
11572;SDS011;5842;52.426;4.886;2023-04-06T18:37:36;23.93;;;17.87;;